createdAt,value
2022-10-08T00:01:33.318Z,100.00
2022-10-08T00:04:03.473Z,100.00
2022-10-08T00:06:34.041Z,100.00
2022-10-08T00:09:08.496Z,100.00
2022-10-08T00:11:40.941Z,100.00
2022-10-08T00:14:10.540Z,100.00
2022-10-08T00:16:41.668Z,100.00
2022-10-08T00:19:14.890Z,100.00
2022-10-08T00:21:45.978Z,100.00
2022-10-08T00:24:18.693Z,100.00
2022-10-08T00:26:47.823Z,100.00
2022-10-08T00:29:22.726Z,100.00
2022-10-08T00:31:52.159Z,100.00
2022-10-08T00:34:24.104Z,100.00
2022-10-08T00:36:54.493Z,100.00
2022-10-08T00:39:26.544Z,100.00
2022-10-08T00:41:57.108Z,100.00
2022-10-08T00:44:54.879Z,100.00
2022-10-08T00:47:36.506Z,100.00
2022-10-08T00:50:13.324Z,100.00
2022-10-08T00:52:48.657Z,100.00
2022-10-08T00:55:23.709Z,100.00
2022-10-08T00:57:53.141Z,100.00
2022-10-08T01:00:25.928Z,100.00
2022-10-08T01:02:55.642Z,100.00
2022-10-08T01:05:39.432Z,100.00
2022-10-08T01:08:18.963Z,100.00
2022-10-08T01:11:00.514Z,100.00
2022-10-08T01:13:42.365Z,100.00
2022-10-08T01:16:28.283Z,100.00
2022-10-08T01:19:14.865Z,100.00
2022-10-08T01:22:00.073Z,100.00
2022-10-08T01:25:02.673Z,100.00
2022-10-08T01:27:39.458Z,100.00
2022-10-08T01:30:14.669Z,100.00
2022-10-08T01:32:50.256Z,100.00
2022-10-08T01:35:25.732Z,100.00
2022-10-08T01:38:00.895Z,100.00
2022-10-08T01:40:35.673Z,100.00
2022-10-08T01:43:11.461Z,100.00
2022-10-08T01:45:46.670Z,100.00
2022-10-08T01:48:26.079Z,100.00
2022-10-08T01:51:00.274Z,100.00
2022-10-08T01:53:35.731Z,100.00
2022-10-08T01:56:09.190Z,100.00
2022-10-08T01:58:50.097Z,100.00
2022-10-08T02:01:28.303Z,100.00
2022-10-08T02:04:14.703Z,100.00
2022-10-08T02:06:51.804Z,100.00
2022-10-08T02:09:22.523Z,100.00
2022-10-08T02:11:51.013Z,100.00
2022-10-08T02:14:24.008Z,100.00
2022-10-08T02:17:02.964Z,100.00
2022-10-08T02:19:47.647Z,100.00
2022-10-08T02:22:20.913Z,100.00
2022-10-08T02:25:00.183Z,100.00
2022-10-08T02:27:44.469Z,100.00
2022-10-08T02:30:14.936Z,100.00
2022-10-08T02:32:55.952Z,100.00
2022-10-08T02:35:32.851Z,100.00
2022-10-08T02:38:07.777Z,100.00
2022-10-08T02:40:42.152Z,100.00
2022-10-08T02:43:18.901Z,100.00
2022-10-08T02:45:56.442Z,100.00
2022-10-08T02:48:32.305Z,100.00
2022-10-08T02:51:07.796Z,100.00
2022-10-08T02:53:40.451Z,100.00
2022-10-08T02:56:17.895Z,100.00
2022-10-08T02:58:48.351Z,100.00
2022-10-08T03:01:28.540Z,100.00
2022-10-08T03:04:04.714Z,100.00
2022-10-08T03:06:34.635Z,100.00
2022-10-08T03:09:06.856Z,100.00
2022-10-08T03:11:36.538Z,100.00
2022-10-08T03:14:10.460Z,100.00
2022-10-08T03:16:44.539Z,100.00
2022-10-08T03:19:16.405Z,100.00
2022-10-08T03:21:49.532Z,100.00
2022-10-08T03:24:18.372Z,100.00
2022-10-08T03:26:47.097Z,100.00
2022-10-08T03:29:15.613Z,100.00
2022-10-08T03:31:45.722Z,100.00
2022-10-08T03:34:14.243Z,100.00
2022-10-08T03:36:42.767Z,100.00
2022-10-08T03:39:12.799Z,100.00
2022-10-08T03:41:42.225Z,100.00
2022-10-08T03:44:12.494Z,100.00
2022-10-08T03:46:41.471Z,100.00
2022-10-08T03:49:11.359Z,100.00
2022-10-08T03:51:39.867Z,100.00
2022-10-08T03:54:08.573Z,100.00
2022-10-08T03:56:37.210Z,100.00
2022-10-08T03:59:05.808Z,100.00
2022-10-08T04:01:34.660Z,100.00
2022-10-08T04:04:03.292Z,100.00
2022-10-08T04:06:33.333Z,100.00
2022-10-08T04:09:02.160Z,100.00
2022-10-08T04:11:31.027Z,100.00
2022-10-08T04:14:01.214Z,100.00
2022-10-08T04:16:30.028Z,100.00
2022-10-08T04:18:58.546Z,100.00
2022-10-08T04:21:27.082Z,100.00
2022-10-08T04:23:57.173Z,100.00
2022-10-08T04:26:25.743Z,100.00
2022-10-08T04:28:54.893Z,100.00
2022-10-08T04:31:24.987Z,100.00
2022-10-08T04:33:54.222Z,100.00
2022-10-08T04:36:25.726Z,100.00
2022-10-08T04:38:55.933Z,100.00
2022-10-08T04:41:26.310Z,100.00
2022-10-08T04:43:59.488Z,100.00
2022-10-08T04:46:28.675Z,100.00
2022-10-08T04:48:59.268Z,100.00
2022-10-08T04:51:29.077Z,100.00
2022-10-08T04:53:59.826Z,100.00
2022-10-08T04:56:31.728Z,100.00
2022-10-08T04:59:01.130Z,100.00
2022-10-08T05:01:31.189Z,100.00
2022-10-08T05:04:01.134Z,100.00
2022-10-08T05:06:32.143Z,100.00
2022-10-08T05:09:04.181Z,100.00
2022-10-08T05:11:34.260Z,100.00
2022-10-08T05:14:03.466Z,100.00
2022-10-08T05:16:32.286Z,100.00
2022-10-08T05:19:01.115Z,100.00
2022-10-08T05:21:32.467Z,100.00
2022-10-08T05:24:06.663Z,100.00
2022-10-08T05:26:57.522Z,100.00
2022-10-08T05:29:28.447Z,100.00
2022-10-08T05:31:57.586Z,100.00
2022-10-08T05:34:26.209Z,100.00
2022-10-08T05:36:55.036Z,100.00
2022-10-08T05:39:25.411Z,100.00
2022-10-08T05:41:54.392Z,100.00
2022-10-08T05:44:23.128Z,100.00
2022-10-08T05:46:51.920Z,100.00
2022-10-08T05:49:23.084Z,100.00
2022-10-08T05:51:52.145Z,100.00
2022-10-08T05:54:21.954Z,100.00
2022-10-08T05:56:52.223Z,100.00
2022-10-08T05:59:24.563Z,100.00
2022-10-08T06:01:53.627Z,100.00
2022-10-08T06:04:22.297Z,100.00
2022-10-08T06:06:51.092Z,100.00
2022-10-08T06:09:22.013Z,100.00
2022-10-08T06:11:52.448Z,100.00
2022-10-08T06:14:21.283Z,100.00
2022-10-08T06:16:49.829Z,100.00
2022-10-08T06:19:18.619Z,100.00
2022-10-08T06:21:47.389Z,100.00
2022-10-08T06:24:16.179Z,100.00
2022-10-08T06:26:45.714Z,100.00
2022-10-08T06:29:19.140Z,100.00
2022-10-08T06:31:48.495Z,100.00
2022-10-08T06:34:17.483Z,100.00
2022-10-08T06:36:46.278Z,100.00
2022-10-08T06:39:17.972Z,100.00
2022-10-08T06:41:46.976Z,100.00
2022-10-08T06:44:19.127Z,100.00
2022-10-08T06:46:48.123Z,100.00
2022-10-08T06:49:18.334Z,100.00
2022-10-08T06:51:46.981Z,100.00
2022-10-08T06:54:16.459Z,100.00
2022-10-08T06:56:44.987Z,100.00
2022-10-08T06:59:13.634Z,100.00
2022-10-08T07:01:43.964Z,100.00
2022-10-08T07:04:12.944Z,100.00
2022-10-08T07:06:41.444Z,100.00
2022-10-08T07:09:11.053Z,100.00
2022-10-08T07:11:40.179Z,100.00
2022-10-08T07:14:08.993Z,100.00
2022-10-08T07:16:37.723Z,100.00
2022-10-08T07:19:07.853Z,100.00
2022-10-08T07:21:36.516Z,100.00
2022-10-08T07:24:05.441Z,100.00
2022-10-08T07:26:36.291Z,100.00
2022-10-08T07:29:08.268Z,100.00
2022-10-08T07:31:39.229Z,100.00
2022-10-08T07:34:13.677Z,100.00
2022-10-08T07:36:43.530Z,100.00
2022-10-08T07:39:15.216Z,100.00
2022-10-08T07:41:43.962Z,100.00
2022-10-08T07:44:13.630Z,100.00
2022-10-08T07:46:45.922Z,100.00
2022-10-08T07:49:17.195Z,100.00
2022-10-08T07:51:46.637Z,100.00
2022-10-08T07:54:18.272Z,100.00
2022-10-08T07:56:47.648Z,100.00
2022-10-08T07:59:16.581Z,100.00
2022-10-08T08:01:45.617Z,99.25
2022-10-08T08:04:15.874Z,99.73
2022-10-08T08:06:47.749Z,97.93
2022-10-08T08:09:18.270Z,93.58
2022-10-08T08:11:48.316Z,96.98
2022-10-08T08:14:16.924Z,89.74
2022-10-08T08:16:45.706Z,93.02
2022-10-08T08:19:15.882Z,89.14
2022-10-08T08:21:44.719Z,90.13
2022-10-08T08:24:15.280Z,92.58
2022-10-08T08:26:45.078Z,92.83
2022-10-08T08:29:17.256Z,91.88
2022-10-08T08:31:48.400Z,91.74
2022-10-08T08:34:21.363Z,89.24
2022-10-08T08:36:53.653Z,88.60
2022-10-08T08:39:25.634Z,88.28
2022-10-08T08:42:18.582Z,86.53
2022-10-08T08:44:50.743Z,86.08
2022-10-08T08:47:26.889Z,85.89
2022-10-08T08:50:03.823Z,84.44
2022-10-08T08:52:41.428Z,81.33
2022-10-08T08:55:18.135Z,82.25
2022-10-08T08:57:58.367Z,80.79
2022-10-08T09:00:36.535Z,75.43
2022-10-08T09:03:17.936Z,78.08
2022-10-08T09:05:53.779Z,76.85
2022-10-08T09:08:29.336Z,74.43
2022-10-08T09:11:01.570Z,72.51
2022-10-08T09:13:38.296Z,62.97
2022-10-08T09:16:07.660Z,70.55
2022-10-08T09:18:36.317Z,71.21
2022-10-08T09:21:06.472Z,73.34
2022-10-08T09:23:35.225Z,72.15
2022-10-08T09:26:14.273Z,71.80
2022-10-08T09:28:47.222Z,71.37
2022-10-08T09:31:27.432Z,64.98
2022-10-08T09:34:06.425Z,64.39
2022-10-08T09:36:41.627Z,67.18
2022-10-08T09:39:20.446Z,69.34
2022-10-08T09:42:12.948Z,68.18
2022-10-08T09:44:44.195Z,68.31
2022-10-08T09:47:15.596Z,69.39
2022-10-08T09:49:49.893Z,70.29
2022-10-08T09:52:25.991Z,71.89
2022-10-08T09:55:03.399Z,69.83
2022-10-08T09:57:34.889Z,70.00
2022-10-08T10:00:10.536Z,67.08
2022-10-08T10:02:39.993Z,65.82
2022-10-08T10:05:23.685Z,68.09
2022-10-08T10:07:54.305Z,67.85
2022-10-08T10:10:28.853Z,65.07
2022-10-08T10:13:03.775Z,62.65
2022-10-08T10:15:40.136Z,63.31
2022-10-08T10:18:17.021Z,70.15
2022-10-08T10:20:51.648Z,70.12
2022-10-08T10:23:29.309Z,72.09
2022-10-08T10:26:07.056Z,70.63
2022-10-08T10:28:44.207Z,71.96
2022-10-08T10:31:20.852Z,74.14
2022-10-08T10:33:57.269Z,72.93
2022-10-08T10:36:32.500Z,73.91
2022-10-08T10:39:14.486Z,74.76
2022-10-08T10:41:49.294Z,74.50
2022-10-08T10:44:27.786Z,75.26
2022-10-08T10:47:01.085Z,75.33
2022-10-08T10:49:38.266Z,72.00
2022-10-08T10:52:34.562Z,73.32
2022-10-08T10:55:22.301Z,78.09
2022-10-08T10:58:18.259Z,77.71
2022-10-08T11:01:03.131Z,77.32
2022-10-08T11:03:55.251Z,77.01
2022-10-08T11:07:01.384Z,78.09
2022-10-08T11:09:46.215Z,78.62
2022-10-08T11:12:37.329Z,76.07
2022-10-08T11:15:24.982Z,78.17
2022-10-08T11:18:30.889Z,78.32
2022-10-08T11:21:27.211Z,77.03
2022-10-08T11:24:30.373Z,72.47
2022-10-08T11:27:12.249Z,72.80
2022-10-08T11:29:57.729Z,78.61
2022-10-08T11:32:30.377Z,77.86
2022-10-08T11:35:20.535Z,74.71
2022-10-08T11:37:58.543Z,78.28
2022-10-08T11:40:35.189Z,76.43
2022-10-08T11:43:11.894Z,78.44
2022-10-08T11:45:46.024Z,77.82
2022-10-08T11:48:42.127Z,71.75
2022-10-08T11:51:31.853Z,76.34
2022-10-08T11:54:13.038Z,76.87
2022-10-08T11:56:46.533Z,76.49
2022-10-08T11:59:34.723Z,77.55
2022-10-08T12:02:19.552Z,76.02
2022-10-08T12:04:51.836Z,75.44
2022-10-08T12:07:28.602Z,76.35
2022-10-08T12:10:32.885Z,74.42
2022-10-08T12:13:29.552Z,75.96
2022-10-08T12:16:07.849Z,75.56
2022-10-08T12:18:46.710Z,76.75
2022-10-08T12:21:55.016Z,71.73
2022-10-08T12:24:58.893Z,70.09
2022-10-08T12:27:40.005Z,68.39
2022-10-08T12:30:12.773Z,71.40
2022-10-08T12:32:56.988Z,71.44
2022-10-08T12:35:31.223Z,73.66
2022-10-08T12:38:23.898Z,74.47
2022-10-08T12:41:11.304Z,69.40
2022-10-08T12:43:50.544Z,71.82
2022-10-08T12:46:36.491Z,72.35
2022-10-08T12:49:19.564Z,73.29
2022-10-08T12:52:00.556Z,73.69
2022-10-08T12:54:32.155Z,71.31
2022-10-08T12:57:08.084Z,71.89
2022-10-08T12:59:40.338Z,72.75
2022-10-08T13:02:28.459Z,73.48
2022-10-08T13:04:57.162Z,72.93
2022-10-08T13:07:30.764Z,72.67
2022-10-08T13:10:02.577Z,68.98
2022-10-08T13:12:31.476Z,67.54
2022-10-08T13:15:05.200Z,68.22
2022-10-08T13:17:36.338Z,70.84
2022-10-08T13:20:16.123Z,72.57
2022-10-08T13:22:46.460Z,73.61
2022-10-08T13:25:41.295Z,74.46
2022-10-08T13:28:16.227Z,76.01
2022-10-08T13:30:46.772Z,72.74
2022-10-08T13:33:20.680Z,75.85
2022-10-08T13:35:56.054Z,77.42
2022-10-08T13:38:32.734Z,77.97
2022-10-08T13:41:06.299Z,77.24
2022-10-08T13:43:36.630Z,76.94
2022-10-08T13:46:05.236Z,78.25
2022-10-08T13:48:33.794Z,79.72
2022-10-08T13:51:03.060Z,78.45
2022-10-08T13:53:33.018Z,80.71
2022-10-08T13:56:01.754Z,81.91
2022-10-08T13:58:32.395Z,80.28
2022-10-08T14:01:01.137Z,81.44
2022-10-08T14:03:29.817Z,82.71
2022-10-08T14:05:59.424Z,84.44
2022-10-08T14:08:32.431Z,85.00
2022-10-08T14:11:01.579Z,79.88
2022-10-08T14:13:30.412Z,82.71
2022-10-08T14:15:59.035Z,80.83
2022-10-08T14:18:27.874Z,78.78
2022-10-08T14:20:56.587Z,75.21
2022-10-08T14:23:25.175Z,76.95
2022-10-08T14:25:56.240Z,68.45
2022-10-08T14:28:24.990Z,73.18
2022-10-08T14:30:53.546Z,71.20
2022-10-08T14:33:22.304Z,72.01
2022-10-08T14:35:53.764Z,72.57
2022-10-08T14:38:22.522Z,77.00
2022-10-08T14:40:51.079Z,72.79
2022-10-08T14:43:22.080Z,74.12
2022-10-08T14:45:51.178Z,75.87
2022-10-08T14:48:20.202Z,76.90
2022-10-08T14:50:48.778Z,78.83
2022-10-08T14:53:17.827Z,80.70
2022-10-08T14:56:10.628Z,78.48
2022-10-08T14:58:36.736Z,81.49
2022-10-08T15:01:05.462Z,79.44
2022-10-08T15:03:34.156Z,82.25
2022-10-08T15:06:03.223Z,83.27
2022-10-08T15:08:31.769Z,84.28
2022-10-08T15:11:04.338Z,86.21
2022-10-08T15:13:33.413Z,87.52
2022-10-08T15:16:04.286Z,89.02
2022-10-08T15:18:33.955Z,88.85
2022-10-08T15:21:02.658Z,89.95
2022-10-08T15:23:31.497Z,90.37
2022-10-08T15:26:02.084Z,92.02
2022-10-08T15:28:31.449Z,91.77
2022-10-08T15:31:11.472Z,92.34
2022-10-08T15:33:42.147Z,93.33
2022-10-08T15:36:19.660Z,94.53
2022-10-08T15:38:55.310Z,95.05
2022-10-08T15:41:25.013Z,96.05
2022-10-08T15:43:54.030Z,96.06
2022-10-08T15:46:26.166Z,96.80
2022-10-08T15:48:57.414Z,97.00
2022-10-08T15:51:26.348Z,97.45
2022-10-08T15:53:54.878Z,98.45
2022-10-08T15:56:23.745Z,99.06
2022-10-08T15:58:52.492Z,99.60
2022-10-08T16:01:24.637Z,99.97
2022-10-08T16:03:56.114Z,100.00
2022-10-08T16:06:27.591Z,99.35
2022-10-08T16:08:58.866Z,99.65
2022-10-08T16:11:30.706Z,97.81
2022-10-08T16:14:02.447Z,92.59
2022-10-08T16:16:32.651Z,84.30
2022-10-08T16:19:04.354Z,84.80
2022-10-08T16:21:35.254Z,90.80
2022-10-08T16:24:04.679Z,91.19
2022-10-08T16:26:35.502Z,96.91
2022-10-08T16:29:07.691Z,97.49
2022-10-08T16:31:39.406Z,100.00
2022-10-08T16:34:12.461Z,100.00
2022-10-08T16:36:41.683Z,100.00
2022-10-08T16:39:12.337Z,100.00
2022-10-08T16:41:40.878Z,100.00
2022-10-08T16:44:13.184Z,100.00
2022-10-08T16:46:48.396Z,100.00
2022-10-08T16:49:24.718Z,100.00
2022-10-08T16:51:55.830Z,100.00
2022-10-08T16:54:24.734Z,100.00
2022-10-08T16:56:53.308Z,100.00
2022-10-08T16:59:24.518Z,100.00
2022-10-08T17:01:58.303Z,100.00
2022-10-08T17:04:29.831Z,100.00
2022-10-08T17:06:58.620Z,100.00
2022-10-08T17:09:27.247Z,100.00
2022-10-08T17:11:56.027Z,100.00
2022-10-08T17:14:24.770Z,100.00
2022-10-08T17:16:54.791Z,100.00
2022-10-08T17:19:23.339Z,100.00
2022-10-08T17:21:52.167Z,100.00
2022-10-08T17:24:20.881Z,100.00
2022-10-08T17:26:50.045Z,100.00
2022-10-08T17:29:18.735Z,100.00
2022-10-08T17:31:47.280Z,100.00
2022-10-08T17:34:17.192Z,100.00
2022-10-08T17:36:46.530Z,100.00
2022-10-08T17:39:15.894Z,100.00
2022-10-08T17:41:44.989Z,100.00
2022-10-08T17:44:14.595Z,100.00
2022-10-08T17:46:46.867Z,100.00
2022-10-08T17:49:19.370Z,100.00
2022-10-08T17:51:51.006Z,100.00
2022-10-08T17:54:21.348Z,100.00
2022-10-08T17:56:50.325Z,100.00
2022-10-08T17:59:22.591Z,100.00
2022-10-08T18:01:52.293Z,100.00
2022-10-08T18:04:22.351Z,100.00
2022-10-08T18:06:50.947Z,100.00
2022-10-08T18:09:22.024Z,100.00
2022-10-08T18:11:53.650Z,100.00
2022-10-08T18:14:23.891Z,100.00
2022-10-08T18:16:52.894Z,100.00
2022-10-08T18:19:23.071Z,100.00
2022-10-08T18:21:52.459Z,100.00
2022-10-08T18:24:21.005Z,100.00
2022-10-08T18:26:49.727Z,100.00
2022-10-08T18:29:18.585Z,100.00
2022-10-08T18:31:47.567Z,100.00
2022-10-08T18:34:20.005Z,100.00
2022-10-08T18:36:50.181Z,100.00
2022-10-08T18:39:26.149Z,100.00
2022-10-08T18:41:57.413Z,100.00
2022-10-08T18:44:27.704Z,100.00
2022-10-08T18:46:56.255Z,100.00
2022-10-08T18:49:30.324Z,100.00
2022-10-08T18:52:01.556Z,100.00
2022-10-08T18:54:30.733Z,100.00
2022-10-08T18:57:00.387Z,100.00
2022-10-08T18:59:30.879Z,100.00
2022-10-08T19:02:00.621Z,100.00
2022-10-08T19:04:29.694Z,100.00
2022-10-08T19:06:58.346Z,100.00
2022-10-08T19:09:28.678Z,100.00
2022-10-08T19:11:57.917Z,100.00
2022-10-08T19:14:26.702Z,100.00
2022-10-08T19:16:55.525Z,100.00
2022-10-08T19:19:27.481Z,100.00
2022-10-08T19:21:56.389Z,100.00
2022-10-08T19:24:29.052Z,100.00
2022-10-08T19:26:58.459Z,100.00
2022-10-08T19:29:33.701Z,100.00
2022-10-08T19:32:02.893Z,100.00
2022-10-08T19:34:31.825Z,100.00
2022-10-08T19:37:00.526Z,100.00
2022-10-08T19:39:31.935Z,100.00
2022-10-08T19:42:00.780Z,100.00
2022-10-08T19:44:29.362Z,100.00
2022-10-08T19:46:58.015Z,100.00
2022-10-08T19:49:26.869Z,100.00
2022-10-08T19:51:55.658Z,100.00
2022-10-08T19:54:25.478Z,100.00
2022-10-08T19:56:56.039Z,100.00
2022-10-08T19:59:24.622Z,100.00
2022-10-08T20:01:53.232Z,100.00
2022-10-08T20:04:23.515Z,100.00
2022-10-08T20:06:52.781Z,100.00
2022-10-08T20:09:21.425Z,97.44
2022-10-08T20:11:50.256Z,100.00
2022-10-08T20:14:20.287Z,100.00
2022-10-08T20:16:48.909Z,100.00
2022-10-08T20:19:20.880Z,100.00
2022-10-08T20:21:51.376Z,100.00
2022-10-08T20:24:20.945Z,100.00
2022-10-08T20:26:50.846Z,100.00
2022-10-08T20:29:26.254Z,100.00
2022-10-08T20:31:58.118Z,100.00
2022-10-08T20:34:31.374Z,98.66
2022-10-08T20:37:02.398Z,100.00
2022-10-08T20:39:31.466Z,100.00
2022-10-08T20:42:00.342Z,100.00
2022-10-08T20:44:30.470Z,100.00
2022-10-08T20:47:00.615Z,100.00
2022-10-08T20:49:30.744Z,100.00
2022-10-08T20:51:59.379Z,100.00
2022-10-08T20:54:28.173Z,100.00
2022-10-08T20:56:57.030Z,100.00
2022-10-08T20:59:26.365Z,100.00
2022-10-08T21:01:56.475Z,100.00
2022-10-08T21:04:25.278Z,100.00
2022-10-08T21:06:54.430Z,100.00
2022-10-08T21:09:23.343Z,100.00
2022-10-08T21:11:53.722Z,100.00
2022-10-08T21:14:24.122Z,100.00
2022-10-08T21:16:54.254Z,97.94
2022-10-08T21:19:25.910Z,97.93
2022-10-08T21:21:54.971Z,96.76
2022-10-08T21:24:23.590Z,90.71
2022-10-08T21:26:52.417Z,96.61
2022-10-08T21:29:21.525Z,92.12
2022-10-08T21:31:50.320Z,96.53
2022-10-08T21:34:19.068Z,92.88
2022-10-08T21:36:50.063Z,91.08
2022-10-08T21:39:18.890Z,90.33
2022-10-08T21:41:47.969Z,92.59
2022-10-08T21:44:16.915Z,95.31
2022-10-08T21:46:46.281Z,92.43
2022-10-08T21:49:20.501Z,96.42
2022-10-08T21:51:50.704Z,100.00
2022-10-08T21:54:19.599Z,95.04
2022-10-08T21:56:48.243Z,93.01
2022-10-08T21:59:18.048Z,93.37
2022-10-08T22:01:48.946Z,89.18
2022-10-08T22:04:20.878Z,86.94
2022-10-08T22:06:54.844Z,88.42
2022-10-08T22:09:26.242Z,87.77
2022-10-08T22:11:56.928Z,90.47
2022-10-08T22:14:26.522Z,93.26
2022-10-08T22:16:55.431Z,91.04
2022-10-08T22:19:24.214Z,88.02
2022-10-08T22:21:54.372Z,87.97
2022-10-08T22:24:23.011Z,87.63
2022-10-08T22:26:51.602Z,90.53
2022-10-08T22:29:20.363Z,89.85
2022-10-08T22:31:49.006Z,88.17
2022-10-08T22:34:17.637Z,88.42
2022-10-08T22:36:46.600Z,88.72
2022-10-08T22:39:17.346Z,91.45
2022-10-08T22:41:46.451Z,93.31
2022-10-08T22:44:15.163Z,88.19
2022-10-08T22:46:43.750Z,91.97
2022-10-08T22:49:13.362Z,90.59
2022-10-08T22:51:43.822Z,93.85
2022-10-08T22:54:12.476Z,90.87
2022-10-08T22:56:42.587Z,90.56
2022-10-08T22:59:11.480Z,91.12
2022-10-08T23:01:40.007Z,90.47
2022-10-08T23:04:08.585Z,89.38
2022-10-08T23:06:37.637Z,91.13
2022-10-08T23:09:09.152Z,93.33
2022-10-08T23:11:38.007Z,93.71
2022-10-08T23:14:08.095Z,92.76
2022-10-08T23:16:36.729Z,93.70
2022-10-08T23:19:09.192Z,95.05
2022-10-08T23:21:40.886Z,94.92
2022-10-08T23:24:12.758Z,94.47
2022-10-08T23:26:41.297Z,94.30
2022-10-08T23:29:12.888Z,100.00
2022-10-08T23:31:41.789Z,100.00
2022-10-08T23:34:10.414Z,100.00
2022-10-08T23:36:41.974Z,100.00
2022-10-08T23:39:15.174Z,99.06
2022-10-08T23:41:44.222Z,100.00
2022-10-08T23:44:14.501Z,100.00
2022-10-08T23:46:43.135Z,96.25
2022-10-08T23:49:11.831Z,94.01
2022-10-08T23:51:40.627Z,97.70
2022-10-08T23:54:09.170Z,98.91
2022-10-08T23:56:37.714Z,92.91
2022-10-08T23:59:06.483Z,95.51
